GBYD/BJL METAR and TAF weather

Enter ICAO airport designator
Station Type Date Time Source
GBYD METAR 2019/06/26 22:00 UTC NOAA

GBYD 262200Z 24005KT 9999 SCT012 26/23 Q1013


Station Type Date Time Source
GBYD Decoded METAR 2019/06/26 22:00 UTC NOAA

Banjul / Yundum, Gambia, The (GBYD) 13-21N 016-48W 36M
Jun 26, 2019 - 06:00 PM EDT / 2019.06.26 2200 UTC
Wind: from the WSW (240 degrees) at 6 MPH (5 KT):0
Visibility: greater than 7 mile(s):0
Sky conditions: partly cloudy
Temperature: 78 F (26 C)
Dew Point: 73 F (23 C)
Relative Humidity: 83%
Pressure (altimeter): 29.91 in. Hg (1013 hPa)
ob: GBYD 262200Z 24005KT 9999 SCT012 26/23 Q1013
cycle: 22

Station Type Date Time Source
GBYD TAF 2019/06/26 18:15 UTC NOAA

TAF TAF GBYD 261730Z 2618/2724 24008KT 9999 SCT012

Example: see airport list